sensor_id;sensor_type;location;lat;lon;timestamp;P1;durP1;ratioP1;P2;durP2;ratioP2
58446;SDS011;44240;51.840;7.258;2022-10-17T00:01:09;11.65;;;7.20;;
58446;SDS011;44240;51.840;7.258;2022-10-17T00:03:35;10.40;;;7.28;;
58446;SDS011;44240;51.840;7.258;2022-10-17T00:06:06;10.18;;;7.00;;
58446;SDS011;44240;51.840;7.258;2022-10-17T00:08:33;12.98;;;7.90;;
58446;SDS011;44240;51.840;7.258;2022-10-17T00:11:01;12.98;;;7.28;;
58446;SDS011;44240;51.840;7.258;2022-10-17T00:13:29;9.25;;;6.72;;
58446;SDS011;44240;51.840;7.258;2022-10-17T00:15:56;9.63;;;7.75;;
58446;SDS011;44240;51.840;7.258;2022-10-17T00:18:22;11.55;;;8.18;;
58446;SDS011;44240;51.840;7.258;2022-10-17T00:20:48;13.57;;;8.30;;
58446;SDS011;44240;51.840;7.258;2022-10-17T00:23:14;10.73;;;7.78;;
58446;SDS011;44240;51.840;7.258;2022-10-17T00:25:39;10.13;;;7.63;;
58446;SDS011;44240;51.840;7.258;2022-10-17T00:28:07;12.40;;;8.30;;
58446;SDS011;44240;51.840;7.258;2022-10-17T00:30:33;11.68;;;8.40;;
58446;SDS011;44240;51.840;7.258;2022-10-17T00:32:59;11.65;;;8.98;;
58446;SDS011;44240;51.840;7.258;2022-10-17T00:35:24;13.02;;;9.25;;
58446;SDS011;44240;51.840;7.258;2022-10-17T00:37:50;10.02;;;8.25;;
58446;SDS011;44240;51.840;7.258;2022-10-17T00:40:15;10.27;;;7.53;;
58446;SDS011;44240;51.840;7.258;2022-10-17T00:42:41;11.90;;;8.05;;
58446;SDS011;44240;51.840;7.258;2022-10-17T00:47:44;9.90;;;7.13;;
58446;SDS011;44240;51.840;7.258;2022-10-17T00:50:14;10.27;;;7.60;;
58446;SDS011;44240;51.840;7.258;2022-10-17T00:52:41;12.23;;;8.25;;
58446;SDS011;44240;51.840;7.258;2022-10-17T00:55:13;12.00;;;8.32;;
58446;SDS011;44240;51.840;7.258;2022-10-17T00:57:41;10.88;;;7.50;;
58446;SDS011;44240;51.840;7.258;2022-10-17T01:00:08;11.52;;;7.70;;
58446;SDS011;44240;51.840;7.258;2022-10-17T01:02:35;12.23;;;7.97;;
58446;SDS011;44240;51.840;7.258;2022-10-17T01:05:01;13.15;;;8.88;;
58446;SDS011;44240;51.840;7.258;2022-10-17T01:07:26;12.80;;;8.77;;
58446;SDS011;44240;51.840;7.258;2022-10-17T01:09:53;14.07;;;8.23;;
58446;SDS011;44240;51.840;7.258;2022-10-17T01:12:38;14.35;;;8.35;;
58446;SDS011;44240;51.840;7.258;2022-10-17T01:15:22;14.25;;;8.50;;
58446;SDS011;44240;51.840;7.258;2022-10-17T01:29:17;14.93;;;8.38;;
58446;SDS011;44240;51.840;7.258;2022-10-17T01:31:48;12.25;;;8.18;;
58446;SDS011;44240;51.840;7.258;2022-10-17T01:34:27;9.32;;;7.90;;
58446;SDS011;44240;51.840;7.258;2022-10-17T01:37:05;13.88;;;9.23;;
58446;SDS011;44240;51.840;7.258;2022-10-17T01:39:49;11.20;;;8.13;;
58446;SDS011;44240;51.840;7.258;2022-10-17T01:45:02;15.38;;;9.00;;
58446;SDS011;44240;51.840;7.258;2022-10-17T01:47:43;13.27;;;9.00;;
58446;SDS011;44240;51.840;7.258;2022-10-17T01:50:13;12.10;;;9.27;;
58446;SDS011;44240;51.840;7.258;2022-10-17T01:52:56;14.68;;;9.07;;
58446;SDS011;44240;51.840;7.258;2022-10-17T01:55:27;13.40;;;8.85;;
58446;SDS011;44240;51.840;7.258;2022-10-17T01:58:06;11.30;;;9.30;;
58446;SDS011;44240;51.840;7.258;2022-10-17T02:00:38;11.85;;;9.02;;
58446;SDS011;44240;51.840;7.258;2022-10-17T02:03:07;13.98;;;9.23;;
58446;SDS011;44240;51.840;7.258;2022-10-17T02:05:36;12.82;;;8.82;;
58446;SDS011;44240;51.840;7.258;2022-10-17T02:08:04;18.25;;;9.43;;
58446;SDS011;44240;51.840;7.258;2022-10-17T02:16:19;14.57;;;9.35;;
58446;SDS011;44240;51.840;7.258;2022-10-17T02:19:21;12.75;;;9.15;;
58446;SDS011;44240;51.840;7.258;2022-10-17T02:22:14;17.55;;;9.20;;
58446;SDS011;44240;51.840;7.258;2022-10-17T02:24:46;15.40;;;9.18;;
58446;SDS011;44240;51.840;7.258;2022-10-17T02:33:05;13.55;;;9.60;;
58446;SDS011;44240;51.840;7.258;2022-10-17T02:35:32;17.88;;;10.07;;
58446;SDS011;44240;51.840;7.258;2022-10-17T02:38:02;14.38;;;9.77;;
58446;SDS011;44240;51.840;7.258;2022-10-17T02:40:30;15.77;;;9.90;;
58446;SDS011;44240;51.840;7.258;2022-10-17T02:42:57;14.02;;;9.65;;
58446;SDS011;44240;51.840;7.258;2022-10-17T02:45:27;15.52;;;9.77;;
58446;SDS011;44240;51.840;7.258;2022-10-17T02:51:31;11.60;;;8.88;;
58446;SDS011;44240;51.840;7.258;2022-10-17T02:53:48;15.88;;;9.23;;
58446;SDS011;44240;51.840;7.258;2022-10-17T02:56:22;15.00;;;9.18;;
58446;SDS011;44240;51.840;7.258;2022-10-17T02:58:52;13.82;;;8.88;;
58446;SDS011;44240;51.840;7.258;2022-10-17T03:01:21;16.35;;;10.60;;
58446;SDS011;44240;51.840;7.258;2022-10-17T03:03:47;14.98;;;9.48;;
58446;SDS011;44240;51.840;7.258;2022-10-17T03:06:12;17.10;;;10.00;;
58446;SDS011;44240;51.840;7.258;2022-10-17T03:08:38;15.82;;;9.88;;
58446;SDS011;44240;51.840;7.258;2022-10-17T03:11:03;14.63;;;9.30;;
58446;SDS011;44240;51.840;7.258;2022-10-17T03:13:29;17.60;;;9.77;;
58446;SDS011;44240;51.840;7.258;2022-10-17T03:15:55;16.63;;;9.32;;
58446;SDS011;44240;51.840;7.258;2022-10-17T03:18:21;17.75;;;9.80;;
58446;SDS011;44240;51.840;7.258;2022-10-17T03:20:47;16.45;;;9.63;;
58446;SDS011;44240;51.840;7.258;2022-10-17T03:23:12;14.82;;;10.70;;
58446;SDS011;44240;51.840;7.258;2022-10-17T03:25:38;15.18;;;9.20;;
58446;SDS011;44240;51.840;7.258;2022-10-17T03:28:04;16.73;;;10.50;;
58446;SDS011;44240;51.840;7.258;2022-10-17T03:30:30;16.98;;;10.15;;
58446;SDS011;44240;51.840;7.258;2022-10-17T03:32:56;14.48;;;9.73;;
58446;SDS011;44240;51.840;7.258;2022-10-17T03:35:22;16.15;;;9.52;;
58446;SDS011;44240;51.840;7.258;2022-10-17T03:37:48;17.67;;;9.52;;
58446;SDS011;44240;51.840;7.258;2022-10-17T03:40:14;17.00;;;9.82;;
58446;SDS011;44240;51.840;7.258;2022-10-17T03:42:39;15.38;;;8.82;;
58446;SDS011;44240;51.840;7.258;2022-10-17T03:45:05;14.82;;;9.90;;
58446;SDS011;44240;51.840;7.258;2022-10-17T03:47:31;16.63;;;9.65;;
58446;SDS011;44240;51.840;7.258;2022-10-17T03:49:56;14.27;;;8.70;;
58446;SDS011;44240;51.840;7.258;2022-10-17T03:52:22;21.23;;;10.38;;
58446;SDS011;44240;51.840;7.258;2022-10-17T03:54:48;16.00;;;9.80;;
58446;SDS011;44240;51.840;7.258;2022-10-17T03:57:14;19.20;;;10.95;;
58446;SDS011;44240;51.840;7.258;2022-10-17T03:59:40;16.10;;;10.27;;
58446;SDS011;44240;51.840;7.258;2022-10-17T04:02:06;17.23;;;9.15;;
58446;SDS011;44240;51.840;7.258;2022-10-17T04:04:31;18.13;;;11.23;;
58446;SDS011;44240;51.840;7.258;2022-10-17T04:06:57;20.70;;;10.25;;
58446;SDS011;44240;51.840;7.258;2022-10-17T04:09:22;12.90;;;9.35;;
58446;SDS011;44240;51.840;7.258;2022-10-17T04:11:48;18.30;;;9.75;;
58446;SDS011;44240;51.840;7.258;2022-10-17T04:14:13;15.00;;;9.50;;
58446;SDS011;44240;51.840;7.258;2022-10-17T04:16:39;14.45;;;9.25;;
58446;SDS011;44240;51.840;7.258;2022-10-17T04:19:05;16.27;;;10.13;;
58446;SDS011;44240;51.840;7.258;2022-10-17T04:21:30;16.55;;;10.02;;
58446;SDS011;44240;51.840;7.258;2022-10-17T04:23:56;16.50;;;10.07;;
58446;SDS011;44240;51.840;7.258;2022-10-17T04:26:23;15.23;;;9.63;;
58446;SDS011;44240;51.840;7.258;2022-10-17T04:28:49;15.18;;;9.77;;
58446;SDS011;44240;51.840;7.258;2022-10-17T04:31:15;15.73;;;9.40;;
58446;SDS011;44240;51.840;7.258;2022-10-17T04:33:41;14.77;;;10.02;;
58446;SDS011;44240;51.840;7.258;2022-10-17T04:36:10;19.88;;;9.95;;
58446;SDS011;44240;51.840;7.258;2022-10-17T04:38:38;16.55;;;9.20;;
58446;SDS011;44240;51.840;7.258;2022-10-17T04:41:04;17.55;;;9.60;;
58446;SDS011;44240;51.840;7.258;2022-10-17T04:43:37;15.90;;;9.90;;
58446;SDS011;44240;51.840;7.258;2022-10-17T04:46:07;15.85;;;9.68;;
58446;SDS011;44240;51.840;7.258;2022-10-17T04:48:38;19.03;;;11.03;;
58446;SDS011;44240;51.840;7.258;2022-10-17T04:51:06;18.70;;;10.43;;
58446;SDS011;44240;51.840;7.258;2022-10-17T04:53:34;16.88;;;9.80;;
58446;SDS011;44240;51.840;7.258;2022-10-17T04:56:05;12.75;;;9.10;;
58446;SDS011;44240;51.840;7.258;2022-10-17T04:58:40;17.58;;;10.35;;
58446;SDS011;44240;51.840;7.258;2022-10-17T05:01:06;15.35;;;9.68;;
58446;SDS011;44240;51.840;7.258;2022-10-17T05:03:33;22.30;;;10.20;;
58446;SDS011;44240;51.840;7.258;2022-10-17T05:06:03;15.00;;;9.52;;
58446;SDS011;44240;51.840;7.258;2022-10-17T05:08:37;16.30;;;9.02;;
58446;SDS011;44240;51.840;7.258;2022-10-17T05:11:03;14.68;;;9.38;;
58446;SDS011;44240;51.840;7.258;2022-10-17T05:13:29;16.73;;;9.02;;
58446;SDS011;44240;51.840;7.258;2022-10-17T05:15:59;17.00;;;9.43;;
58446;SDS011;44240;51.840;7.258;2022-10-17T05:18:25;12.80;;;8.30;;
58446;SDS011;44240;51.840;7.258;2022-10-17T05:20:52;17.60;;;9.93;;
58446;SDS011;44240;51.840;7.258;2022-10-17T05:23:17;15.75;;;9.40;;
58446;SDS011;44240;51.840;7.258;2022-10-17T05:25:43;16.13;;;8.65;;
58446;SDS011;44240;51.840;7.258;2022-10-17T05:28:08;14.82;;;9.52;;
58446;SDS011;44240;51.840;7.258;2022-10-17T05:30:34;17.83;;;9.18;;
58446;SDS011;44240;51.840;7.258;2022-10-17T05:33:00;14.55;;;9.30;;
58446;SDS011;44240;51.840;7.258;2022-10-17T05:35:26;15.07;;;9.38;;
58446;SDS011;44240;51.840;7.258;2022-10-17T05:37:52;15.18;;;9.02;;
58446;SDS011;44240;51.840;7.258;2022-10-17T05:40:17;14.40;;;8.68;;
58446;SDS011;44240;51.840;7.258;2022-10-17T05:42:46;17.75;;;9.35;;
58446;SDS011;44240;51.840;7.258;2022-10-17T05:45:13;15.90;;;8.68;;
58446;SDS011;44240;51.840;7.258;2022-10-17T05:47:39;13.48;;;9.02;;
58446;SDS011;44240;51.840;7.258;2022-10-17T05:50:05;13.65;;;8.82;;
58446;SDS011;44240;51.840;7.258;2022-10-17T05:52:32;11.60;;;7.95;;
58446;SDS011;44240;51.840;7.258;2022-10-17T05:54:57;14.98;;;8.50;;
58446;SDS011;44240;51.840;7.258;2022-10-17T05:57:24;14.13;;;8.85;;
58446;SDS011;44240;51.840;7.258;2022-10-17T05:59:50;13.60;;;8.80;;
58446;SDS011;44240;51.840;7.258;2022-10-17T06:02:15;14.73;;;8.98;;
58446;SDS011;44240;51.840;7.258;2022-10-17T06:04:41;15.05;;;8.93;;
58446;SDS011;44240;51.840;7.258;2022-10-17T06:07:10;18.52;;;9.32;;
58446;SDS011;44240;51.840;7.258;2022-10-17T06:09:36;17.83;;;10.23;;
58446;SDS011;44240;51.840;7.258;2022-10-17T06:12:03;14.77;;;8.25;;
58446;SDS011;44240;51.840;7.258;2022-10-17T06:14:28;16.05;;;9.45;;
58446;SDS011;44240;51.840;7.258;2022-10-17T06:16:54;18.48;;;9.07;;
58446;SDS011;44240;51.840;7.258;2022-10-17T06:19:19;14.93;;;8.55;;
58446;SDS011;44240;51.840;7.258;2022-10-17T06:21:45;15.60;;;8.05;;
58446;SDS011;44240;51.840;7.258;2022-10-17T06:24:11;14.38;;;8.50;;
58446;SDS011;44240;51.840;7.258;2022-10-17T06:26:36;14.90;;;8.88;;
58446;SDS011;44240;51.840;7.258;2022-10-17T06:29:02;16.17;;;9.52;;
58446;SDS011;44240;51.840;7.258;2022-10-17T06:31:28;13.52;;;9.05;;
58446;SDS011;44240;51.840;7.258;2022-10-17T06:33:54;15.20;;;9.13;;
58446;SDS011;44240;51.840;7.258;2022-10-17T06:36:19;20.40;;;8.88;;
58446;SDS011;44240;51.840;7.258;2022-10-17T06:38:45;17.00;;;8.77;;
58446;SDS011;44240;51.840;7.258;2022-10-17T06:41:12;12.68;;;7.82;;
58446;SDS011;44240;51.840;7.258;2022-10-17T06:43:39;12.98;;;7.85;;
58446;SDS011;44240;51.840;7.258;2022-10-17T06:46:13;11.63;;;7.47;;
58446;SDS011;44240;51.840;7.258;2022-10-17T06:48:39;16.92;;;8.88;;
58446;SDS011;44240;51.840;7.258;2022-10-17T06:51:05;20.25;;;9.07;;
58446;SDS011;44240;51.840;7.258;2022-10-17T06:53:34;19.80;;;8.82;;
58446;SDS011;44240;51.840;7.258;2022-10-17T06:56:00;15.45;;;9.52;;
58446;SDS011;44240;51.840;7.258;2022-10-17T06:58:28;15.63;;;8.45;;
58446;SDS011;44240;51.840;7.258;2022-10-17T07:01:02;15.35;;;7.50;;
58446;SDS011;44240;51.840;7.258;2022-10-17T07:03:30;14.07;;;8.80;;
58446;SDS011;44240;51.840;7.258;2022-10-17T07:05:56;17.20;;;8.18;;
58446;SDS011;44240;51.840;7.258;2022-10-17T07:08:22;14.15;;;8.18;;
58446;SDS011;44240;51.840;7.258;2022-10-17T07:10:48;16.17;;;9.23;;
58446;SDS011;44240;51.840;7.258;2022-10-17T07:13:14;13.65;;;8.07;;
58446;SDS011;44240;51.840;7.258;2022-10-17T07:15:40;12.23;;;8.02;;
58446;SDS011;44240;51.840;7.258;2022-10-17T07:18:06;14.77;;;8.55;;
58446;SDS011;44240;51.840;7.258;2022-10-17T07:20:31;16.92;;;8.88;;
58446;SDS011;44240;51.840;7.258;2022-10-17T07:22:57;11.75;;;7.90;;
58446;SDS011;44240;51.840;7.258;2022-10-17T07:25:23;96.10;;;15.38;;
58446;SDS011;44240;51.840;7.258;2022-10-17T07:27:49;35.80;;;9.95;;
58446;SDS011;44240;51.840;7.258;2022-10-17T07:30:14;25.20;;;9.02;;
58446;SDS011;44240;51.840;7.258;2022-10-17T07:32:40;13.68;;;7.95;;
58446;SDS011;44240;51.840;7.258;2022-10-17T07:35:07;10.85;;;6.88;;
58446;SDS011;44240;51.840;7.258;2022-10-17T07:37:33;13.00;;;8.05;;
58446;SDS011;44240;51.840;7.258;2022-10-17T07:39:59;13.68;;;6.68;;
58446;SDS011;44240;51.840;7.258;2022-10-17T07:42:24;14.60;;;7.55;;
58446;SDS011;44240;51.840;7.258;2022-10-17T07:44:51;12.57;;;7.45;;
58446;SDS011;44240;51.840;7.258;2022-10-17T07:47:17;9.70;;;7.30;;
58446;SDS011;44240;51.840;7.258;2022-10-17T07:49:42;8.23;;;6.70;;
58446;SDS011;44240;51.840;7.258;2022-10-17T07:52:09;12.73;;;6.90;;
58446;SDS011;44240;51.840;7.258;2022-10-17T07:54:36;11.75;;;6.95;;
58446;SDS011;44240;51.840;7.258;2022-10-17T07:57:02;9.05;;;7.32;;
58446;SDS011;44240;51.840;7.258;2022-10-17T07:59:27;12.85;;;6.40;;
58446;SDS011;44240;51.840;7.258;2022-10-17T08:01:56;17.58;;;8.18;;
58446;SDS011;44240;51.840;7.258;2022-10-17T08:04:22;31.73;;;9.07;;
58446;SDS011;44240;51.840;7.258;2022-10-17T08:06:48;13.60;;;7.35;;
58446;SDS011;44240;51.840;7.258;2022-10-17T08:09:14;19.25;;;6.70;;
58446;SDS011;44240;51.840;7.258;2022-10-17T08:11:39;19.45;;;7.18;;
58446;SDS011;44240;51.840;7.258;2022-10-17T08:14:07;56.90;;;12.27;;
58446;SDS011;44240;51.840;7.258;2022-10-17T08:16:33;13.30;;;7.45;;
58446;SDS011;44240;51.840;7.258;2022-10-17T08:18:59;14.25;;;7.88;;
58446;SDS011;44240;51.840;7.258;2022-10-17T08:21:25;13.40;;;7.35;;
58446;SDS011;44240;51.840;7.258;2022-10-17T08:23:50;8.65;;;5.93;;
58446;SDS011;44240;51.840;7.258;2022-10-17T08:26:16;9.45;;;6.07;;
58446;SDS011;44240;51.840;7.258;2022-10-17T08:28:43;11.35;;;6.65;;
58446;SDS011;44240;51.840;7.258;2022-10-17T08:31:13;12.13;;;6.90;;
58446;SDS011;44240;51.840;7.258;2022-10-17T08:33:44;8.95;;;6.38;;
58446;SDS011;44240;51.840;7.258;2022-10-17T08:36:12;8.10;;;6.07;;
58446;SDS011;44240;51.840;7.258;2022-10-17T08:38:39;9.60;;;5.97;;
58446;SDS011;44240;51.840;7.258;2022-10-17T08:46:31;11.82;;;6.88;;
58446;SDS011;44240;51.840;7.258;2022-10-17T08:49:01;7.38;;;5.78;;
58446;SDS011;44240;51.840;7.258;2022-10-17T08:51:31;11.23;;;5.97;;
58446;SDS011;44240;51.840;7.258;2022-10-17T08:54:10;9.07;;;5.95;;
58446;SDS011;44240;51.840;7.258;2022-10-17T08:56:44;11.52;;;4.93;;
58446;SDS011;44240;51.840;7.258;2022-10-17T08:59:13;8.45;;;4.57;;
58446;SDS011;44240;51.840;7.258;2022-10-17T09:01:54;6.80;;;5.10;;
58446;SDS011;44240;51.840;7.258;2022-10-17T09:07:20;16.83;;;5.70;;
58446;SDS011;44240;51.840;7.258;2022-10-17T09:12:32;6.60;;;4.90;;
58446;SDS011;44240;51.840;7.258;2022-10-17T09:15:28;11.63;;;5.35;;
58446;SDS011;44240;51.840;7.258;2022-10-17T09:20:41;30.50;;;8.65;;
58446;SDS011;44240;51.840;7.258;2022-10-17T09:23:12;10.80;;;4.95;;
58446;SDS011;44240;51.840;7.258;2022-10-17T09:25:43;6.57;;;4.75;;
58446;SDS011;44240;51.840;7.258;2022-10-17T09:28:18;12.10;;;4.57;;
58446;SDS011;44240;51.840;7.258;2022-10-17T09:31:02;7.30;;;4.50;;
58446;SDS011;44240;51.840;7.258;2022-10-17T09:33:33;6.40;;;3.90;;
58446;SDS011;44240;51.840;7.258;2022-10-17T09:38:43;12.82;;;4.20;;
58446;SDS011;44240;51.840;7.258;2022-10-17T09:41:15;7.93;;;4.38;;
58446;SDS011;44240;51.840;7.258;2022-10-17T09:43:43;7.90;;;4.53;;
58446;SDS011;44240;51.840;7.258;2022-10-17T09:46:12;7.80;;;4.20;;
58446;SDS011;44240;51.840;7.258;2022-10-17T09:51:38;9.90;;;4.25;;
58446;SDS011;44240;51.840;7.258;2022-10-17T09:54:19;7.80;;;3.97;;
58446;SDS011;44240;51.840;7.258;2022-10-17T10:07:22;9.97;;;4.40;;
58446;SDS011;44240;51.840;7.258;2022-10-17T10:09:49;9.52;;;4.22;;
58446;SDS011;44240;51.840;7.258;2022-10-17T10:12:20;6.18;;;3.72;;
58446;SDS011;44240;51.840;7.258;2022-10-17T10:14:51;9.02;;;4.45;;
58446;SDS011;44240;51.840;7.258;2022-10-17T10:17:24;5.85;;;4.10;;
58446;SDS011;44240;51.840;7.258;2022-10-17T10:19:52;6.95;;;4.20;;
58446;SDS011;44240;51.840;7.258;2022-10-17T10:22:18;7.45;;;4.72;;
58446;SDS011;44240;51.840;7.258;2022-10-17T10:25:33;6.45;;;3.78;;
58446;SDS011;44240;51.840;7.258;2022-10-17T10:27:39;11.50;;;4.80;;
58446;SDS011;44240;51.840;7.258;2022-10-17T10:30:06;7.45;;;4.13;;
58446;SDS011;44240;51.840;7.258;2022-10-17T10:32:43;6.97;;;4.55;;
58446;SDS011;44240;51.840;7.258;2022-10-17T10:35:21;9.30;;;4.50;;
58446;SDS011;44240;51.840;7.258;2022-10-17T10:37:52;6.18;;;3.75;;
58446;SDS011;44240;51.840;7.258;2022-10-17T10:40:27;8.68;;;4.40;;
58446;SDS011;44240;51.840;7.258;2022-10-17T10:42:57;4.95;;;3.50;;
58446;SDS011;44240;51.840;7.258;2022-10-17T10:45:28;5.88;;;3.67;;
58446;SDS011;44240;51.840;7.258;2022-10-17T10:50:55;4.77;;;3.73;;
58446;SDS011;44240;51.840;7.258;2022-10-17T11:07:15;5.35;;;4.20;;
58446;SDS011;44240;51.840;7.258;2022-10-17T11:09:54;10.45;;;4.53;;
58446;SDS011;44240;51.840;7.258;2022-10-17T11:12:32;11.10;;;5.00;;
58446;SDS011;44240;51.840;7.258;2022-10-17T11:20:33;4.43;;;4.03;;
58446;SDS011;44240;51.840;7.258;2022-10-17T11:23:11;8.82;;;4.38;;
58446;SDS011;44240;51.840;7.258;2022-10-17T11:25:45;7.43;;;3.72;;
58446;SDS011;44240;51.840;7.258;2022-10-17T11:28:20;8.05;;;4.00;;
58446;SDS011;44240;51.840;7.258;2022-10-17T11:30:49;7.32;;;4.00;;
58446;SDS011;44240;51.840;7.258;2022-10-17T11:33:24;4.80;;;4.30;;
58446;SDS011;44240;51.840;7.258;2022-10-17T11:35:54;10.43;;;4.45;;
58446;SDS011;44240;51.840;7.258;2022-10-17T11:38:34;6.75;;;4.22;;
58446;SDS011;44240;51.840;7.258;2022-10-17T11:41:00;8.30;;;4.93;;
58446;SDS011;44240;51.840;7.258;2022-10-17T11:45:57;6.25;;;4.40;;
58446;SDS011;44240;51.840;7.258;2022-10-17T11:48:31;9.05;;;4.63;;
58446;SDS011;44240;51.840;7.258;2022-10-17T11:51:09;8.77;;;4.43;;
58446;SDS011;44240;51.840;7.258;2022-10-17T11:53:47;9.65;;;4.82;;
58446;SDS011;44240;51.840;7.258;2022-10-17T11:56:44;6.20;;;4.78;;
58446;SDS011;44240;51.840;7.258;2022-10-17T11:59:23;9.18;;;4.80;;
58446;SDS011;44240;51.840;7.258;2022-10-17T12:02:27;10.90;;;6.07;;
58446;SDS011;44240;51.840;7.258;2022-10-17T12:05:00;9.30;;;4.85;;
58446;SDS011;44240;51.840;7.258;2022-10-17T12:07:39;7.72;;;5.20;;
58446;SDS011;44240;51.840;7.258;2022-10-17T12:10:27;11.38;;;5.38;;
58446;SDS011;44240;51.840;7.258;2022-10-17T12:12:54;9.93;;;6.10;;
58446;SDS011;44240;51.840;7.258;2022-10-17T12:17:57;14.38;;;5.60;;
58446;SDS011;44240;51.840;7.258;2022-10-17T12:20:28;5.70;;;5.10;;
58446;SDS011;44240;51.840;7.258;2022-10-17T12:25:27;9.48;;;5.20;;
58446;SDS011;44240;51.840;7.258;2022-10-17T12:30:35;13.20;;;5.55;;
58446;SDS011;44240;51.840;7.258;2022-10-17T12:35:30;11.50;;;5.28;;
58446;SDS011;44240;51.840;7.258;2022-10-17T12:45:48;10.07;;;5.55;;
58446;SDS011;44240;51.840;7.258;2022-10-17T12:51:03;7.38;;;5.70;;
58446;SDS011;44240;51.840;7.258;2022-10-17T12:56:37;11.50;;;6.95;;
58446;SDS011;44240;51.840;7.258;2022-10-17T12:59:07;10.35;;;6.40;;
58446;SDS011;44240;51.840;7.258;2022-10-17T13:01:38;11.40;;;7.40;;
58446;SDS011;44240;51.840;7.258;2022-10-17T13:04:08;10.27;;;6.40;;
58446;SDS011;44240;51.840;7.258;2022-10-17T13:06:36;12.27;;;6.00;;
58446;SDS011;44240;51.840;7.258;2022-10-17T13:09:12;9.52;;;6.22;;
58446;SDS011;44240;51.840;7.258;2022-10-17T13:12:09;8.45;;;6.18;;
58446;SDS011;44240;51.840;7.258;2022-10-17T13:14:39;10.07;;;6.97;;
58446;SDS011;44240;51.840;7.258;2022-10-17T13:17:06;16.58;;;6.68;;
58446;SDS011;44240;51.840;7.258;2022-10-17T13:19:45;12.43;;;7.70;;
58446;SDS011;44240;51.840;7.258;2022-10-17T13:22:22;10.93;;;7.50;;
58446;SDS011;44240;51.840;7.258;2022-10-17T13:24:50;8.82;;;6.63;;
58446;SDS011;44240;51.840;7.258;2022-10-17T13:27:29;11.90;;;7.53;;
58446;SDS011;44240;51.840;7.258;2022-10-17T13:29:58;14.45;;;8.50;;
58446;SDS011;44240;51.840;7.258;2022-10-17T13:32:27;11.15;;;6.60;;
58446;SDS011;44240;51.840;7.258;2022-10-17T13:37:32;12.18;;;6.88;;
58446;SDS011;44240;51.840;7.258;2022-10-17T13:39:59;10.35;;;6.57;;
58446;SDS011;44240;51.840;7.258;2022-10-17T13:42:26;14.88;;;7.15;;
58446;SDS011;44240;51.840;7.258;2022-10-17T13:45:01;11.68;;;6.95;;
58446;SDS011;44240;51.840;7.258;2022-10-17T13:47:28;11.32;;;7.15;;
58446;SDS011;44240;51.840;7.258;2022-10-17T13:49:56;14.05;;;6.82;;
58446;SDS011;44240;51.840;7.258;2022-10-17T13:52:24;11.02;;;7.07;;
58446;SDS011;44240;51.840;7.258;2022-10-17T13:54:52;8.48;;;6.43;;
58446;SDS011;44240;51.840;7.258;2022-10-17T13:57:19;7.65;;;5.60;;
58446;SDS011;44240;51.840;7.258;2022-10-17T13:59:53;11.93;;;7.05;;
58446;SDS011;44240;51.840;7.258;2022-10-17T14:02:29;10.13;;;5.45;;
58446;SDS011;44240;51.840;7.258;2022-10-17T14:05:12;9.95;;;5.60;;
58446;SDS011;44240;51.840;7.258;2022-10-17T14:10:22;16.38;;;8.18;;
58446;SDS011;44240;51.840;7.258;2022-10-17T14:12:50;11.80;;;6.95;;
58446;SDS011;44240;51.840;7.258;2022-10-17T14:15:17;6.60;;;5.43;;
58446;SDS011;44240;51.840;7.258;2022-10-17T14:17:43;9.55;;;5.32;;
58446;SDS011;44240;51.840;7.258;2022-10-17T14:20:17;9.35;;;5.43;;
58446;SDS011;44240;51.840;7.258;2022-10-17T14:22:44;6.13;;;4.80;;
58446;SDS011;44240;51.840;7.258;2022-10-17T14:28:13;5.57;;;4.68;;
58446;SDS011;44240;51.840;7.258;2022-10-17T14:30:51;5.50;;;3.88;;
58446;SDS011;44240;51.840;7.258;2022-10-17T14:33:22;10.63;;;5.13;;
58446;SDS011;44240;51.840;7.258;2022-10-17T14:35:49;10.38;;;4.22;;
58446;SDS011;44240;51.840;7.258;2022-10-17T14:38:18;6.50;;;4.47;;
58446;SDS011;44240;51.840;7.258;2022-10-17T14:40:49;7.03;;;5.18;;
58446;SDS011;44240;51.840;7.258;2022-10-17T14:43:19;10.02;;;6.38;;
58446;SDS011;44240;51.840;7.258;2022-10-17T14:45:47;9.57;;;4.68;;
58446;SDS011;44240;51.840;7.258;2022-10-17T14:48:20;10.18;;;5.68;;
58446;SDS011;44240;51.840;7.258;2022-10-17T14:53:32;6.90;;;4.22;;
58446;SDS011;44240;51.840;7.258;2022-10-17T14:55:59;8.02;;;4.40;;
58446;SDS011;44240;51.840;7.258;2022-10-17T14:58:28;10.75;;;4.95;;
58446;SDS011;44240;51.840;7.258;2022-10-17T15:00:55;7.47;;;4.22;;
58446;SDS011;44240;51.840;7.258;2022-10-17T15:03:21;7.07;;;4.60;;
58446;SDS011;44240;51.840;7.258;2022-10-17T15:05:48;6.65;;;4.32;;
58446;SDS011;44240;51.840;7.258;2022-10-17T15:08:15;7.70;;;4.07;;
58446;SDS011;44240;51.840;7.258;2022-10-17T15:10:43;10.05;;;4.20;;
58446;SDS011;44240;51.840;7.258;2022-10-17T15:13:10;9.63;;;4.60;;
58446;SDS011;44240;51.840;7.258;2022-10-17T15:15:36;13.63;;;4.65;;
58446;SDS011;44240;51.840;7.258;2022-10-17T15:18:03;7.18;;;4.47;;
58446;SDS011;44240;51.840;7.258;2022-10-17T15:20:29;6.55;;;4.82;;
58446;SDS011;44240;51.840;7.258;2022-10-17T15:22:56;16.65;;;6.13;;
58446;SDS011;44240;51.840;7.258;2022-10-17T15:25:23;15.77;;;5.45;;
58446;SDS011;44240;51.840;7.258;2022-10-17T15:27:49;8.82;;;5.35;;
58446;SDS011;44240;51.840;7.258;2022-10-17T15:32:47;9.80;;;4.75;;
58446;SDS011;44240;51.840;7.258;2022-10-17T15:35:13;5.68;;;4.60;;
58446;SDS011;44240;51.840;7.258;2022-10-17T15:37:39;11.13;;;4.95;;
58446;SDS011;44240;51.840;7.258;2022-10-17T15:40:08;6.57;;;4.70;;
58446;SDS011;44240;51.840;7.258;2022-10-17T15:42:38;6.30;;;4.63;;
58446;SDS011;44240;51.840;7.258;2022-10-17T15:45:04;6.65;;;5.03;;
58446;SDS011;44240;51.840;7.258;2022-10-17T15:47:31;8.30;;;5.25;;
58446;SDS011;44240;51.840;7.258;2022-10-17T15:49:57;8.25;;;5.38;;
58446;SDS011;44240;51.840;7.258;2022-10-17T15:52:24;6.78;;;4.50;;
58446;SDS011;44240;51.840;7.258;2022-10-17T15:54:51;8.63;;;4.80;;
58446;SDS011;44240;51.840;7.258;2022-10-17T15:57:21;6.32;;;4.95;;
58446;SDS011;44240;51.840;7.258;2022-10-17T15:59:52;12.77;;;5.55;;
58446;SDS011;44240;51.840;7.258;2022-10-17T16:02:19;9.30;;;4.85;;
58446;SDS011;44240;51.840;7.258;2022-10-17T16:04:46;7.55;;;5.07;;
58446;SDS011;44240;51.840;7.258;2022-10-17T16:07:13;8.13;;;5.00;;
58446;SDS011;44240;51.840;7.258;2022-10-17T16:09:39;9.85;;;4.80;;
58446;SDS011;44240;51.840;7.258;2022-10-17T16:12:05;9.55;;;5.43;;
58446;SDS011;44240;51.840;7.258;2022-10-17T16:14:34;8.00;;;5.28;;
58446;SDS011;44240;51.840;7.258;2022-10-17T16:17:00;8.20;;;5.95;;
58446;SDS011;44240;51.840;7.258;2022-10-17T16:19:26;10.98;;;6.13;;
58446;SDS011;44240;51.840;7.258;2022-10-17T16:21:54;8.65;;;4.85;;
58446;SDS011;44240;51.840;7.258;2022-10-17T16:24:20;11.02;;;6.25;;
58446;SDS011;44240;51.840;7.258;2022-10-17T16:26:46;7.75;;;4.95;;
58446;SDS011;44240;51.840;7.258;2022-10-17T16:29:11;8.05;;;5.55;;
58446;SDS011;44240;51.840;7.258;2022-10-17T16:31:39;10.40;;;6.07;;
58446;SDS011;44240;51.840;7.258;2022-10-17T16:34:07;7.95;;;5.63;;
58446;SDS011;44240;51.840;7.258;2022-10-17T16:36:35;8.98;;;6.65;;
58446;SDS011;44240;51.840;7.258;2022-10-17T16:39:00;9.68;;;6.55;;
58446;SDS011;44240;51.840;7.258;2022-10-17T16:41:27;11.32;;;6.60;;
58446;SDS011;44240;51.840;7.258;2022-10-17T16:43:54;11.23;;;6.60;;
58446;SDS011;44240;51.840;7.258;2022-10-17T16:46:22;12.50;;;6.90;;
58446;SDS011;44240;51.840;7.258;2022-10-17T16:48:50;11.38;;;6.40;;
58446;SDS011;44240;51.840;7.258;2022-10-17T16:51:16;12.40;;;7.07;;
58446;SDS011;44240;51.840;7.258;2022-10-17T16:53:43;13.00;;;8.15;;